sensor_id;sensor_type;location;lat;lon;timestamp;P1;durP1;ratioP1;P2;durP2;ratioP2
40955;SDS011;26687;48.254;11.454;2023-03-01T00:01:07;12.15;;;11.13;;
40955;SDS011;26687;48.254;11.454;2023-03-01T00:04:07;12.57;;;11.38;;
40955;SDS011;26687;48.254;11.454;2023-03-01T00:07:08;11.70;;;10.67;;
40955;SDS011;26687;48.254;11.454;2023-03-01T00:10:08;11.67;;;10.63;;
40955;SDS011;26687;48.254;11.454;2023-03-01T00:13:08;11.70;;;10.60;;
40955;SDS011;26687;48.254;11.454;2023-03-01T00:16:10;11.82;;;10.73;;
40955;SDS011;26687;48.254;11.454;2023-03-01T00:19:11;11.32;;;10.43;;
40955;SDS011;26687;48.254;11.454;2023-03-01T00:22:12;11.95;;;10.95;;
40955;SDS011;26687;48.254;11.454;2023-03-01T00:25:12;11.98;;;10.98;;
40955;SDS011;26687;48.254;11.454;2023-03-01T00:28:12;11.43;;;10.43;;
40955;SDS011;26687;48.254;11.454;2023-03-01T00:31:14;10.80;;;9.97;;
40955;SDS011;26687;48.254;11.454;2023-03-01T00:34:14;11.52;;;10.52;;
40955;SDS011;26687;48.254;11.454;2023-03-01T00:37:14;11.87;;;10.87;;
40955;SDS011;26687;48.254;11.454;2023-03-01T00:40:15;10.70;;;9.80;;
40955;SDS011;26687;48.254;11.454;2023-03-01T00:43:16;12.07;;;10.88;;
40955;SDS011;26687;48.254;11.454;2023-03-01T00:46:17;12.20;;;11.20;;
40955;SDS011;26687;48.254;11.454;2023-03-01T00:49:17;11.85;;;10.75;;
40955;SDS011;26687;48.254;11.454;2023-03-01T00:52:17;11.48;;;10.48;;
40955;SDS011;26687;48.254;11.454;2023-03-01T00:55:18;12.25;;;11.15;;
40955;SDS011;26687;48.254;11.454;2023-03-01T00:58:18;12.57;;;11.48;;
40955;SDS011;26687;48.254;11.454;2023-03-01T01:01:19;12.32;;;11.23;;
40955;SDS011;26687;48.254;11.454;2023-03-01T01:04:20;11.40;;;10.43;;
40955;SDS011;26687;48.254;11.454;2023-03-01T01:07:20;11.60;;;10.60;;
40955;SDS011;26687;48.254;11.454;2023-03-01T01:10:20;12.27;;;11.27;;
40955;SDS011;26687;48.254;11.454;2023-03-01T01:13:20;12.20;;;11.10;;
40955;SDS011;26687;48.254;11.454;2023-03-01T01:16:22;11.68;;;10.68;;
40955;SDS011;26687;48.254;11.454;2023-03-01T01:19:22;12.07;;;11.07;;
40955;SDS011;26687;48.254;11.454;2023-03-01T01:22:23;11.95;;;10.85;;
40955;SDS011;26687;48.254;11.454;2023-03-01T01:25:23;11.45;;;10.45;;
40955;SDS011;26687;48.254;11.454;2023-03-01T01:28:24;11.52;;;10.52;;
40955;SDS011;26687;48.254;11.454;2023-03-01T01:31:25;11.85;;;10.80;;
40955;SDS011;26687;48.254;11.454;2023-03-01T01:34:25;11.82;;;10.90;;
40955;SDS011;26687;48.254;11.454;2023-03-01T01:37:25;12.50;;;11.38;;
40955;SDS011;26687;48.254;11.454;2023-03-01T01:40:33;11.30;;;10.40;;
40955;SDS011;26687;48.254;11.454;2023-03-01T01:43:34;12.45;;;11.35;;
40955;SDS011;26687;48.254;11.454;2023-03-01T01:46:42;11.65;;;10.65;;
40955;SDS011;26687;48.254;11.454;2023-03-01T01:49:49;12.07;;;11.07;;
40955;SDS011;26687;48.254;11.454;2023-03-01T01:52:50;11.45;;;10.43;;
40955;SDS011;26687;48.254;11.454;2023-03-01T01:55:53;11.15;;;10.25;;
40955;SDS011;26687;48.254;11.454;2023-03-01T01:58:54;11.48;;;10.57;;
40955;SDS011;26687;48.254;11.454;2023-03-01T02:01:55;12.88;;;11.75;;
40955;SDS011;26687;48.254;11.454;2023-03-01T02:05:32;11.80;;;10.80;;
40955;SDS011;26687;48.254;11.454;2023-03-01T02:08:25;11.55;;;10.55;;
40955;SDS011;26687;48.254;11.454;2023-03-01T02:11:27;11.38;;;10.48;;
40955;SDS011;26687;48.254;11.454;2023-03-01T02:14:27;11.23;;;10.32;;
40955;SDS011;26687;48.254;11.454;2023-03-01T02:17:27;11.70;;;10.70;;
40955;SDS011;26687;48.254;11.454;2023-03-01T02:20:32;12.90;;;11.70;;
40955;SDS011;26687;48.254;11.454;2023-03-01T02:23:33;10.88;;;9.98;;
40955;SDS011;26687;48.254;11.454;2023-03-01T02:26:35;10.85;;;9.95;;
40955;SDS011;26687;48.254;11.454;2023-03-01T02:29:37;11.93;;;10.93;;
40955;SDS011;26687;48.254;11.454;2023-03-01T02:32:38;11.13;;;10.23;;
40955;SDS011;26687;48.254;11.454;2023-03-01T02:35:41;11.90;;;10.80;;
40955;SDS011;26687;48.254;11.454;2023-03-01T02:38:41;11.80;;;10.70;;
40955;SDS011;26687;48.254;11.454;2023-03-01T02:41:43;11.50;;;10.52;;
40955;SDS011;26687;48.254;11.454;2023-03-01T02:44:43;12.02;;;10.93;;
40955;SDS011;26687;48.254;11.454;2023-03-01T02:47:44;12.07;;;11.07;;
40955;SDS011;26687;48.254;11.454;2023-03-01T02:51:04;10.10;;;9.20;;
40955;SDS011;26687;48.254;11.454;2023-03-01T02:54:11;11.30;;;10.20;;
40955;SDS011;26687;48.254;11.454;2023-03-01T02:57:12;11.63;;;10.70;;
40955;SDS011;26687;48.254;11.454;2023-03-01T03:00:58;11.45;;;10.43;;
40955;SDS011;26687;48.254;11.454;2023-03-01T03:03:33;11.07;;;10.07;;
40955;SDS011;26687;48.254;11.454;2023-03-01T03:06:34;9.15;;;8.40;;
40955;SDS011;26687;48.254;11.454;2023-03-01T03:09:34;11.80;;;10.80;;
40955;SDS011;26687;48.254;11.454;2023-03-01T03:12:34;11.45;;;10.43;;
40955;SDS011;26687;48.254;11.454;2023-03-01T03:15:35;10.90;;;9.90;;
40955;SDS011;26687;48.254;11.454;2023-03-01T03:18:35;11.73;;;10.60;;
40955;SDS011;26687;48.254;11.454;2023-03-01T03:21:36;8.65;;;7.95;;
40955;SDS011;26687;48.254;11.454;2023-03-01T03:24:36;11.60;;;10.60;;
40955;SDS011;26687;48.254;11.454;2023-03-01T03:27:38;11.05;;;10.15;;
40955;SDS011;26687;48.254;11.454;2023-03-01T03:30:39;11.60;;;10.60;;
40955;SDS011;26687;48.254;11.454;2023-03-01T03:33:40;11.38;;;10.38;;
40955;SDS011;26687;48.254;11.454;2023-03-01T03:36:40;11.40;;;10.40;;
40955;SDS011;26687;48.254;11.454;2023-03-01T03:39:41;10.65;;;9.75;;
40955;SDS011;26687;48.254;11.454;2023-03-01T03:42:41;12.13;;;11.07;;
40955;SDS011;26687;48.254;11.454;2023-03-01T03:45:43;11.50;;;10.60;;
40955;SDS011;26687;48.254;11.454;2023-03-01T03:48:44;10.48;;;9.57;;
40955;SDS011;26687;48.254;11.454;2023-03-01T03:51:45;10.18;;;9.38;;
40955;SDS011;26687;48.254;11.454;2023-03-01T03:54:45;10.77;;;9.82;;
40955;SDS011;26687;48.254;11.454;2023-03-01T03:57:46;10.40;;;9.50;;
40955;SDS011;26687;48.254;11.454;2023-03-01T04:00:52;11.32;;;10.25;;
40955;SDS011;26687;48.254;11.454;2023-03-01T04:03:52;11.85;;;10.75;;
40955;SDS011;26687;48.254;11.454;2023-03-01T04:06:54;11.90;;;10.80;;
40955;SDS011;26687;48.254;11.454;2023-03-01T04:09:54;11.88;;;10.88;;
40955;SDS011;26687;48.254;11.454;2023-03-01T04:12:54;12.05;;;10.98;;
40955;SDS011;26687;48.254;11.454;2023-03-01T04:15:56;11.38;;;10.38;;
40955;SDS011;26687;48.254;11.454;2023-03-01T04:18:56;11.57;;;10.57;;
40955;SDS011;26687;48.254;11.454;2023-03-01T04:24:59;11.93;;;10.90;;
40955;SDS011;26687;48.254;11.454;2023-03-01T04:28:06;11.20;;;10.30;;
40955;SDS011;26687;48.254;11.454;2023-03-01T04:31:07;11.77;;;10.77;;
40955;SDS011;26687;48.254;11.454;2023-03-01T04:34:12;11.13;;;10.23;;
40955;SDS011;26687;48.254;11.454;2023-03-01T04:37:14;11.70;;;10.70;;
40955;SDS011;26687;48.254;11.454;2023-03-01T04:40:15;11.90;;;10.80;;
40955;SDS011;26687;48.254;11.454;2023-03-01T04:43:16;12.50;;;11.50;;
40955;SDS011;26687;48.254;11.454;2023-03-01T04:46:18;11.88;;;10.98;;
40955;SDS011;26687;48.254;11.454;2023-03-01T04:49:19;12.15;;;11.15;;
40955;SDS011;26687;48.254;11.454;2023-03-01T04:52:19;11.77;;;10.73;;
40955;SDS011;26687;48.254;11.454;2023-03-01T04:55:19;11.90;;;10.90;;
40955;SDS011;26687;48.254;11.454;2023-03-01T04:58:19;12.60;;;11.60;;
40955;SDS011;26687;48.254;11.454;2023-03-01T05:01:20;12.23;;;11.03;;
40955;SDS011;26687;48.254;11.454;2023-03-01T05:04:20;12.95;;;11.48;;
40955;SDS011;26687;48.254;11.454;2023-03-01T05:07:20;11.97;;;10.87;;
40955;SDS011;26687;48.254;11.454;2023-03-01T05:10:20;12.35;;;11.35;;
40955;SDS011;26687;48.254;11.454;2023-03-01T05:13:20;11.90;;;10.90;;
40955;SDS011;26687;48.254;11.454;2023-03-01T05:16:21;12.60;;;11.43;;
40955;SDS011;26687;48.254;11.454;2023-03-01T05:19:21;12.90;;;11.70;;
40955;SDS011;26687;48.254;11.454;2023-03-01T05:22:22;12.48;;;11.45;;
40955;SDS011;26687;48.254;11.454;2023-03-01T05:25:22;13.38;;;12.20;;
40955;SDS011;26687;48.254;11.454;2023-03-01T05:28:23;13.20;;;12.00;;
40955;SDS011;26687;48.254;11.454;2023-03-01T05:31:23;12.52;;;11.43;;
40955;SDS011;26687;48.254;11.454;2023-03-01T05:34:23;13.05;;;11.85;;
40955;SDS011;26687;48.254;11.454;2023-03-01T05:37:24;13.15;;;11.93;;
40955;SDS011;26687;48.254;11.454;2023-03-01T05:40:24;13.43;;;12.27;;
40955;SDS011;26687;48.254;11.454;2023-03-01T05:43:24;12.10;;;11.07;;
40955;SDS011;26687;48.254;11.454;2023-03-01T05:46:24;12.90;;;11.80;;
40955;SDS011;26687;48.254;11.454;2023-03-01T05:49:24;13.25;;;11.88;;
40955;SDS011;26687;48.254;11.454;2023-03-01T05:52:25;12.50;;;11.30;;
40955;SDS011;26687;48.254;11.454;2023-03-01T05:55:26;13.32;;;12.02;;
40955;SDS011;26687;48.254;11.454;2023-03-01T05:58:26;13.13;;;12.02;;
40955;SDS011;26687;48.254;11.454;2023-03-01T06:01:27;12.30;;;11.20;;
40955;SDS011;26687;48.254;11.454;2023-03-01T06:04:27;13.00;;;11.82;;
40955;SDS011;26687;48.254;11.454;2023-03-01T06:07:27;12.60;;;11.50;;
40955;SDS011;26687;48.254;11.454;2023-03-01T06:10:27;12.65;;;11.50;;
40955;SDS011;26687;48.254;11.454;2023-03-01T06:13:28;12.73;;;11.63;;
40955;SDS011;26687;48.254;11.454;2023-03-01T06:16:28;12.32;;;11.15;;
40955;SDS011;26687;48.254;11.454;2023-03-01T06:19:28;10.90;;;10.07;;
40955;SDS011;26687;48.254;11.454;2023-03-01T06:22:28;12.23;;;11.13;;
40955;SDS011;26687;48.254;11.454;2023-03-01T06:25:28;12.50;;;11.40;;
40955;SDS011;26687;48.254;11.454;2023-03-01T06:28:29;12.80;;;11.70;;
40955;SDS011;26687;48.254;11.454;2023-03-01T06:31:29;13.55;;;12.35;;
40955;SDS011;26687;48.254;11.454;2023-03-01T06:34:29;7.20;;;6.50;;
40955;SDS011;26687;48.254;11.454;2023-03-01T06:37:29;6.70;;;6.10;;
40955;SDS011;26687;48.254;11.454;2023-03-01T06:40:30;8.23;;;7.53;;
40955;SDS011;26687;48.254;11.454;2023-03-01T06:43:35;11.32;;;10.30;;
40955;SDS011;26687;48.254;11.454;2023-03-01T06:46:35;12.68;;;11.57;;
40955;SDS011;26687;48.254;11.454;2023-03-01T06:49:36;12.63;;;11.52;;
40955;SDS011;26687;48.254;11.454;2023-03-01T06:52:36;12.95;;;11.85;;
40955;SDS011;26687;48.254;11.454;2023-03-01T06:55:36;13.00;;;11.83;;
40955;SDS011;26687;48.254;11.454;2023-03-01T06:58:36;12.45;;;11.38;;
40955;SDS011;26687;48.254;11.454;2023-03-01T07:01:36;13.38;;;12.18;;
40955;SDS011;26687;48.254;11.454;2023-03-01T07:04:37;10.75;;;9.85;;
40955;SDS011;26687;48.254;11.454;2023-03-01T07:07:37;12.98;;;11.88;;
40955;SDS011;26687;48.254;11.454;2023-03-01T07:10:37;13.60;;;12.20;;
40955;SDS011;26687;48.254;11.454;2023-03-01T07:13:37;11.97;;;10.97;;
40955;SDS011;26687;48.254;11.454;2023-03-01T07:16:37;12.98;;;11.63;;
40955;SDS011;26687;48.254;11.454;2023-03-01T07:19:38;13.93;;;12.43;;
40955;SDS011;26687;48.254;11.454;2023-03-01T07:22:39;12.90;;;11.80;;
40955;SDS011;26687;48.254;11.454;2023-03-01T07:25:40;13.75;;;12.55;;
40955;SDS011;26687;48.254;11.454;2023-03-01T07:28:40;13.00;;;11.75;;
40955;SDS011;26687;48.254;11.454;2023-03-01T07:31:40;13.70;;;12.48;;
40955;SDS011;26687;48.254;11.454;2023-03-01T07:34:40;12.10;;;11.10;;
40955;SDS011;26687;48.254;11.454;2023-03-01T07:37:40;13.70;;;12.48;;
40955;SDS011;26687;48.254;11.454;2023-03-01T07:40:41;14.15;;;12.75;;
40955;SDS011;26687;48.254;11.454;2023-03-01T07:43:41;13.13;;;12.00;;
40955;SDS011;26687;48.254;11.454;2023-03-01T07:46:41;13.27;;;11.98;;
40955;SDS011;26687;48.254;11.454;2023-03-01T07:49:41;13.52;;;12.32;;
40955;SDS011;26687;48.254;11.454;2023-03-01T07:52:41;14.30;;;13.00;;
40955;SDS011;26687;48.254;11.454;2023-03-01T07:55:41;14.97;;;13.57;;
40955;SDS011;26687;48.254;11.454;2023-03-01T07:58:42;13.93;;;12.63;;
40955;SDS011;26687;48.254;11.454;2023-03-01T08:01:42;14.25;;;12.95;;
40955;SDS011;26687;48.254;11.454;2023-03-01T08:04:42;12.77;;;11.77;;
40955;SDS011;26687;48.254;11.454;2023-03-01T08:07:42;14.07;;;12.77;;
40955;SDS011;26687;48.254;11.454;2023-03-01T08:10:43;13.73;;;12.52;;
40955;SDS011;26687;48.254;11.454;2023-03-01T08:13:43;12.70;;;11.60;;
40955;SDS011;26687;48.254;11.454;2023-03-01T08:16:43;11.43;;;10.45;;
40955;SDS011;26687;48.254;11.454;2023-03-01T08:19:43;13.82;;;12.63;;
40955;SDS011;26687;48.254;11.454;2023-03-01T08:22:44;13.63;;;12.43;;
40955;SDS011;26687;48.254;11.454;2023-03-01T08:25:44;14.48;;;13.18;;
40955;SDS011;26687;48.254;11.454;2023-03-01T08:28:45;13.75;;;12.60;;
40955;SDS011;26687;48.254;11.454;2023-03-01T08:31:45;15.02;;;13.63;;
40955;SDS011;26687;48.254;11.454;2023-03-01T08:34:46;14.73;;;13.32;;
40955;SDS011;26687;48.254;11.454;2023-03-01T08:37:46;15.15;;;13.77;;
40955;SDS011;26687;48.254;11.454;2023-03-01T08:40:47;15.13;;;13.77;;
40955;SDS011;26687;48.254;11.454;2023-03-01T08:43:47;14.18;;;12.88;;
40955;SDS011;26687;48.254;11.454;2023-03-01T08:46:47;14.70;;;13.30;;
40955;SDS011;26687;48.254;11.454;2023-03-01T08:49:50;14.35;;;13.15;;
40955;SDS011;26687;48.254;11.454;2023-03-01T08:52:50;15.85;;;13.93;;
40955;SDS011;26687;48.254;11.454;2023-03-01T08:55:50;13.85;;;12.65;;
40955;SDS011;26687;48.254;11.454;2023-03-01T08:58:50;13.95;;;12.75;;
40955;SDS011;26687;48.254;11.454;2023-03-01T09:01:51;7.18;;;6.57;;
40955;SDS011;26687;48.254;11.454;2023-03-01T09:04:51;15.18;;;13.77;;
40955;SDS011;26687;48.254;11.454;2023-03-01T09:07:51;14.45;;;13.15;;
40955;SDS011;26687;48.254;11.454;2023-03-01T09:10:51;14.75;;;13.32;;
40955;SDS011;26687;48.254;11.454;2023-03-01T09:13:51;15.53;;;14.13;;
40955;SDS011;26687;48.254;11.454;2023-03-01T09:16:51;13.82;;;12.60;;
40955;SDS011;26687;48.254;11.454;2023-03-01T09:19:51;14.38;;;13.07;;
40955;SDS011;26687;48.254;11.454;2023-03-01T09:22:52;15.10;;;13.70;;
40955;SDS011;26687;48.254;11.454;2023-03-01T09:25:52;14.73;;;13.43;;
40955;SDS011;26687;48.254;11.454;2023-03-01T09:28:53;9.13;;;8.32;;
40955;SDS011;26687;48.254;11.454;2023-03-01T09:31:54;10.15;;;9.25;;
40955;SDS011;26687;48.254;11.454;2023-03-01T09:34:55;11.98;;;10.98;;
40955;SDS011;26687;48.254;11.454;2023-03-01T09:38:03;14.48;;;13.18;;
40955;SDS011;26687;48.254;11.454;2023-03-01T09:41:09;13.27;;;12.13;;
40955;SDS011;26687;48.254;11.454;2023-03-01T09:47:29;8.85;;;8.07;;
40955;SDS011;26687;48.254;11.454;2023-03-01T09:50:33;15.02;;;13.73;;
40955;SDS011;26687;48.254;11.454;2023-03-01T09:53:34;15.25;;;13.85;;
40955;SDS011;26687;48.254;11.454;2023-03-01T09:56:41;14.13;;;12.82;;
40955;SDS011;26687;48.254;11.454;2023-03-01T09:59:56;15.50;;;14.05;;
40955;SDS011;26687;48.254;11.454;2023-03-01T10:03:22;15.98;;;14.57;;
40955;SDS011;26687;48.254;11.454;2023-03-01T10:06:21;15.80;;;14.27;;
40955;SDS011;26687;48.254;11.454;2023-03-01T10:09:21;14.85;;;13.45;;
40955;SDS011;26687;48.254;11.454;2023-03-01T10:12:31;14.00;;;12.63;;
40955;SDS011;26687;48.254;11.454;2023-03-01T10:15:38;15.45;;;14.05;;
40955;SDS011;26687;48.254;11.454;2023-03-01T10:18:41;15.00;;;13.70;;
40955;SDS011;26687;48.254;11.454;2023-03-01T10:21:43;15.77;;;14.43;;
40955;SDS011;26687;48.254;11.454;2023-03-01T10:24:44;15.27;;;13.80;;
40955;SDS011;26687;48.254;11.454;2023-03-01T10:27:51;14.43;;;13.23;;
40955;SDS011;26687;48.254;11.454;2023-03-01T10:30:52;14.00;;;12.80;;
40955;SDS011;26687;48.254;11.454;2023-03-01T10:33:52;15.75;;;14.35;;
40955;SDS011;26687;48.254;11.454;2023-03-01T10:36:56;13.57;;;12.37;;
40955;SDS011;26687;48.254;11.454;2023-03-01T10:39:58;16.55;;;14.88;;
40955;SDS011;26687;48.254;11.454;2023-03-01T10:43:01;15.27;;;13.98;;
40955;SDS011;26687;48.254;11.454;2023-03-01T10:46:02;15.95;;;14.45;;
40955;SDS011;26687;48.254;11.454;2023-03-01T10:49:14;14.30;;;13.13;;
40955;SDS011;26687;48.254;11.454;2023-03-01T10:52:18;14.13;;;12.82;;
40955;SDS011;26687;48.254;11.454;2023-03-01T10:55:35;16.08;;;14.68;;
40955;SDS011;26687;48.254;11.454;2023-03-01T10:58:36;17.30;;;15.70;;
40955;SDS011;26687;48.254;11.454;2023-03-01T11:01:37;17.52;;;15.93;;
40955;SDS011;26687;48.254;11.454;2023-03-01T11:04:37;16.52;;;15.02;;
40955;SDS011;26687;48.254;11.454;2023-03-01T11:07:47;16.93;;;15.43;;
40955;SDS011;26687;48.254;11.454;2023-03-01T11:10:48;15.60;;;14.30;;
40955;SDS011;26687;48.254;11.454;2023-03-01T11:23:13;16.67;;;15.18;;
40955;SDS011;26687;48.254;11.454;2023-03-01T11:26:13;16.98;;;15.52;;
40955;SDS011;26687;48.254;11.454;2023-03-01T11:29:17;16.95;;;15.45;;
40955;SDS011;26687;48.254;11.454;2023-03-01T11:32:21;16.15;;;14.73;;
40955;SDS011;26687;48.254;11.454;2023-03-01T11:35:27;16.42;;;15.02;;
40955;SDS011;26687;48.254;11.454;2023-03-01T11:38:28;16.10;;;14.70;;
40955;SDS011;26687;48.254;11.454;2023-03-01T11:41:30;16.80;;;15.30;;
40955;SDS011;26687;48.254;11.454;2023-03-01T11:44:31;16.55;;;14.95;;
40955;SDS011;26687;48.254;11.454;2023-03-01T11:50:52;15.35;;;14.02;;
40955;SDS011;26687;48.254;11.454;2023-03-01T12:00:32;16.48;;;14.98;;
40955;SDS011;26687;48.254;11.454;2023-03-01T12:03:38;12.38;;;11.38;;
40955;SDS011;26687;48.254;11.454;2023-03-01T12:13:19;15.45;;;13.95;;
40955;SDS011;26687;48.254;11.454;2023-03-01T12:16:14;13.90;;;12.75;;
40955;SDS011;26687;48.254;11.454;2023-03-01T12:25:39;14.68;;;13.48;;
40955;SDS011;26687;48.254;11.454;2023-03-01T12:32:02;15.18;;;13.80;;
40955;SDS011;26687;48.254;11.454;2023-03-01T12:38:32;15.43;;;14.13;;
40955;SDS011;26687;48.254;11.454;2023-03-01T12:44:39;13.07;;;11.98;;
40955;SDS011;26687;48.254;11.454;2023-03-01T12:47:48;14.75;;;13.45;;
40955;SDS011;26687;48.254;11.454;2023-03-01T12:50:53;15.18;;;13.68;;
40955;SDS011;26687;48.254;11.454;2023-03-01T12:53:54;11.65;;;10.52;;
40955;SDS011;26687;48.254;11.454;2023-03-01T12:56:56;15.82;;;14.43;;
40955;SDS011;26687;48.254;11.454;2023-03-01T13:00:02;13.43;;;12.27;;
40955;SDS011;26687;48.254;11.454;2023-03-01T13:03:18;14.18;;;12.73;;
40955;SDS011;26687;48.254;11.454;2023-03-01T13:15:57;14.90;;;13.60;;
40955;SDS011;26687;48.254;11.454;2023-03-01T13:19:12;12.80;;;11.70;;
40955;SDS011;26687;48.254;11.454;2023-03-01T13:22:27;16.10;;;14.70;;
40955;SDS011;26687;48.254;11.454;2023-03-01T13:25:28;14.98;;;13.63;;
40955;SDS011;26687;48.254;11.454;2023-03-01T13:34:53;13.57;;;12.38;;
40955;SDS011;26687;48.254;11.454;2023-03-01T13:37:52;11.82;;;10.77;;
40955;SDS011;26687;48.254;11.454;2023-03-01T13:41:16;14.98;;;13.68;;
40955;SDS011;26687;48.254;11.454;2023-03-01T13:44:20;14.98;;;13.68;;
40955;SDS011;26687;48.254;11.454;2023-03-01T13:47:21;14.23;;;12.90;;
40955;SDS011;26687;48.254;11.454;2023-03-01T13:50:23;14.87;;;13.67;;
40955;SDS011;26687;48.254;11.454;2023-03-01T13:53:24;14.77;;;13.48;;
40955;SDS011;26687;48.254;11.454;2023-03-01T13:56:27;14.27;;;13.18;;
40955;SDS011;26687;48.254;11.454;2023-03-01T13:59:28;14.30;;;12.95;;
40955;SDS011;26687;48.254;11.454;2023-03-01T14:02:30;14.45;;;13.05;;
40955;SDS011;26687;48.254;11.454;2023-03-01T14:05:30;7.93;;;7.23;;
40955;SDS011;26687;48.254;11.454;2023-03-01T14:08:31;11.25;;;10.32;;
40955;SDS011;26687;48.254;11.454;2023-03-01T14:17:43;9.13;;;8.32;;
40955;SDS011;26687;48.254;11.454;2023-03-01T14:20:45;8.88;;;8.10;;
40955;SDS011;26687;48.254;11.454;2023-03-01T14:23:51;11.65;;;10.65;;
40955;SDS011;26687;48.254;11.454;2023-03-01T14:26:52;7.65;;;6.95;;
40955;SDS011;26687;48.254;11.454;2023-03-01T14:29:59;11.83;;;10.83;;
40955;SDS011;26687;48.254;11.454;2023-03-01T14:33:01;13.48;;;12.27;;
40955;SDS011;26687;48.254;11.454;2023-03-01T14:36:06;13.00;;;11.80;;
40955;SDS011;26687;48.254;11.454;2023-03-01T14:39:15;11.20;;;10.20;;
40955;SDS011;26687;48.254;11.454;2023-03-01T14:42:16;8.77;;;8.07;;
40955;SDS011;26687;48.254;11.454;2023-03-01T14:45:17;4.72;;;4.30;;
40955;SDS011;26687;48.254;11.454;2023-03-01T14:48:17;12.98;;;11.88;;
40955;SDS011;26687;48.254;11.454;2023-03-01T14:51:18;11.70;;;10.63;;
40955;SDS011;26687;48.254;11.454;2023-03-01T14:54:20;10.68;;;9.75;;
40955;SDS011;26687;48.254;11.454;2023-03-01T14:57:23;12.60;;;11.45;;
40955;SDS011;26687;48.254;11.454;2023-03-01T15:00:27;12.40;;;11.30;;
40955;SDS011;26687;48.254;11.454;2023-03-01T15:03:32;13.52;;;12.32;;
40955;SDS011;26687;48.254;11.454;2023-03-01T15:06:34;9.40;;;8.60;;
40955;SDS011;26687;48.254;11.454;2023-03-01T15:09:34;11.87;;;10.77;;
40955;SDS011;26687;48.254;11.454;2023-03-01T15:12:37;11.93;;;10.93;;
40955;SDS011;26687;48.254;11.454;2023-03-01T15:15:41;12.85;;;11.68;;
40955;SDS011;26687;48.254;11.454;2023-03-01T15:18:43;12.95;;;11.75;;
40955;SDS011;26687;48.254;11.454;2023-03-01T15:21:46;12.93;;;11.80;;
40955;SDS011;26687;48.254;11.454;2023-03-01T15:24:48;12.35;;;11.35;;
40955;SDS011;26687;48.254;11.454;2023-03-01T15:27:49;12.73;;;11.63;;
40955;SDS011;26687;48.254;11.454;2023-03-01T15:30:57;9.13;;;8.40;;
40955;SDS011;26687;48.254;11.454;2023-03-01T15:34:09;11.98;;;10.75;;
40955;SDS011;26687;48.254;11.454;2023-03-01T15:40:30;8.98;;;8.20;;
40955;SDS011;26687;48.254;11.454;2023-03-01T15:43:40;11.90;;;10.77;;
40955;SDS011;26687;48.254;11.454;2023-03-01T15:46:44;9.70;;;8.90;;
40955;SDS011;26687;48.254;11.454;2023-03-01T15:49:45;11.40;;;10.40;;
40955;SDS011;26687;48.254;11.454;2023-03-01T15:52:45;11.53;;;10.43;;
40955;SDS011;26687;48.254;11.454;2023-03-01T15:55:46;9.15;;;8.35;;
40955;SDS011;26687;48.254;11.454;2023-03-01T15:58:49;11.60;;;10.48;;
40955;SDS011;26687;48.254;11.454;2023-03-01T16:01:49;11.05;;;9.93;;
40955;SDS011;26687;48.254;11.454;2023-03-01T16:04:50;11.33;;;10.33;;
40955;SDS011;26687;48.254;11.454;2023-03-01T16:07:50;7.70;;;7.07;;
40955;SDS011;26687;48.254;11.454;2023-03-01T16:10:50;10.55;;;9.55;;
40955;SDS011;26687;48.254;11.454;2023-03-01T16:13:51;10.38;;;9.40;;
40955;SDS011;26687;48.254;11.454;2023-03-01T16:16:51;9.85;;;8.95;;
40955;SDS011;26687;48.254;11.454;2023-03-01T16:19:51;10.57;;;9.48;;
40955;SDS011;26687;48.254;11.454;2023-03-01T16:22:52;9.88;;;8.82;;
40955;SDS011;26687;48.254;11.454;2023-03-01T16:25:52;10.67;;;9.63;;
40955;SDS011;26687;48.254;11.454;2023-03-01T16:28:54;10.77;;;9.77;;
40955;SDS011;26687;48.254;11.454;2023-03-01T16:31:54;9.83;;;8.93;;
40955;SDS011;26687;48.254;11.454;2023-03-01T16:34:55;10.55;;;9.55;;
40955;SDS011;26687;48.254;11.454;2023-03-01T16:37:55;9.35;;;8.45;;
40955;SDS011;26687;48.254;11.454;2023-03-01T16:40:55;9.68;;;8.88;;
40955;SDS011;26687;48.254;11.454;2023-03-01T16:43:55;9.30;;;8.40;;
40955;SDS011;26687;48.254;11.454;2023-03-01T16:46:56;10.25;;;9.25;;
40955;SDS011;26687;48.254;11.454;2023-03-01T16:49:56;10.07;;;9.18;;
40955;SDS011;26687;48.254;11.454;2023-03-01T16:52:56;10.20;;;9.30;;
40955;SDS011;26687;48.254;11.454;2023-03-01T16:55:56;11.30;;;9.27;;
40955;SDS011;26687;48.254;11.454;2023-03-01T16:58:57;10.15;;;9.05;;
40955;SDS011;26687;48.254;11.454;2023-03-01T17:01:57;10.02;;;9.18;;
40955;SDS011;26687;48.254;11.454;2023-03-01T17:04:57;9.57;;;8.68;;
40955;SDS011;26687;48.254;11.454;2023-03-01T17:07:57;9.30;;;8.32;;
40955;SDS011;26687;48.254;11.454;2023-03-01T17:11:06;10.50;;;9.38;;
40955;SDS011;26687;48.254;11.454;2023-03-01T17:14:07;10.38;;;9.38;;
40955;SDS011;26687;48.254;11.454;2023-03-01T17:17:08;9.95;;;9.05;;
40955;SDS011;26687;48.254;11.454;2023-03-01T17:20:09;9.90;;;9.00;;
40955;SDS011;26687;48.254;11.454;2023-03-01T17:23:09;9.68;;;8.77;;
40955;SDS011;26687;48.254;11.454;2023-03-01T17:26:09;9.55;;;8.57;;
40955;SDS011;26687;48.254;11.454;2023-03-01T17:29:10;7.82;;;7.03;;
40955;SDS011;26687;48.254;11.454;2023-03-01T17:32:11;8.38;;;7.68;;
40955;SDS011;26687;48.254;11.454;2023-03-01T17:35:11;9.73;;;8.82;;
40955;SDS011;26687;48.254;11.454;2023-03-01T17:38:12;11.40;;;10.30;;
40955;SDS011;26687;48.254;11.454;2023-03-01T17:41:13;10.88;;;9.88;;
40955;SDS011;26687;48.254;11.454;2023-03-01T17:44:14;12.18;;;11.00;;
40955;SDS011;26687;48.254;11.454;2023-03-01T17:47:15;12.03;;;11.00;;
40955;SDS011;26687;48.254;11.454;2023-03-01T17:50:15;13.53;;;12.17;;
40955;SDS011;26687;48.254;11.454;2023-03-01T17:53:15;12.80;;;11.55;;
40955;SDS011;26687;48.254;11.454;2023-03-01T17:56:16;13.15;;;11.98;;
40955;SDS011;26687;48.254;11.454;2023-03-01T17:59:16;13.07;;;11.88;;
40955;SDS011;26687;48.254;11.454;2023-03-01T18:02:16;13.77;;;12.50;;
40955;SDS011;26687;48.254;11.454;2023-03-01T18:05:18;13.52;;;12.32;;
40955;SDS011;26687;48.254;11.454;2023-03-01T18:08:18;14.87;;;13.37;;
40955;SDS011;26687;48.254;11.454;2023-03-01T18:11:18;14.20;;;13.00;;
40955;SDS011;26687;48.254;11.454;2023-03-01T18:14:18;14.70;;;13.30;;
40955;SDS011;26687;48.254;11.454;2023-03-01T18:17:19;13.73;;;12.52;;
40955;SDS011;26687;48.254;11.454;2023-03-01T18:20:20;14.63;;;13.18;;
40955;SDS011;26687;48.254;11.454;2023-03-01T18:23:20;14.98;;;13.70;;
40955;SDS011;26687;48.254;11.454;2023-03-01T18:26:21;15.17;;;13.87;;
40955;SDS011;26687;48.254;11.454;2023-03-01T18:29:21;15.88;;;14.32;;
40955;SDS011;26687;48.254;11.454;2023-03-01T18:32:22;14.70;;;13.40;;
40955;SDS011;26687;48.254;11.454;2023-03-01T18:35:22;14.05;;;12.75;;
40955;SDS011;26687;48.254;11.454;2023-03-01T18:38:23;14.50;;;13.20;;
40955;SDS011;26687;48.254;11.454;2023-03-01T18:41:23;15.32;;;13.93;;
40955;SDS011;26687;48.254;11.454;2023-03-01T18:44:24;8.98;;;8.18;;
40955;SDS011;26687;48.254;11.454;2023-03-01T18:47:24;14.97;;;13.47;;